sensor_id;sensor_type;location;lat;lon;timestamp;P1;durP1;ratioP1;P2;durP2;ratioP2
23418;SDS011;11882;42.522;27.458;2022-10-30T00:02:26;11.33;;;7.07;;
23418;SDS011;11882;42.522;27.458;2022-10-30T00:04:53;9.53;;;6.93;;
23418;SDS011;11882;42.522;27.458;2022-10-30T00:07:20;11.87;;;7.23;;
23418;SDS011;11882;42.522;27.458;2022-10-30T00:09:46;9.77;;;6.60;;
23418;SDS011;11882;42.522;27.458;2022-10-30T00:12:15;11.33;;;7.23;;
23418;SDS011;11882;42.522;27.458;2022-10-30T00:14:42;10.40;;;7.13;;
23418;SDS011;11882;42.522;27.458;2022-10-30T00:17:09;10.53;;;6.87;;
23418;SDS011;11882;42.522;27.458;2022-10-30T00:19:36;9.73;;;7.43;;
23418;SDS011;11882;42.522;27.458;2022-10-30T00:22:03;10.00;;;6.60;;
23418;SDS011;11882;42.522;27.458;2022-10-30T00:24:30;10.93;;;6.77;;
23418;SDS011;11882;42.522;27.458;2022-10-30T00:26:57;10.33;;;7.33;;
23418;SDS011;11882;42.522;27.458;2022-10-30T00:29:25;10.70;;;7.00;;
23418;SDS011;11882;42.522;27.458;2022-10-30T00:31:52;10.63;;;6.57;;
23418;SDS011;11882;42.522;27.458;2022-10-30T00:34:19;11.30;;;6.77;;
23418;SDS011;11882;42.522;27.458;2022-10-30T00:36:46;12.10;;;6.80;;
23418;SDS011;11882;42.522;27.458;2022-10-30T00:39:13;10.07;;;7.00;;
23418;SDS011;11882;42.522;27.458;2022-10-30T00:41:40;8.80;;;6.50;;
23418;SDS011;11882;42.522;27.458;2022-10-30T00:47:10;9.57;;;6.37;;
23418;SDS011;11882;42.522;27.458;2022-10-30T00:49:45;8.40;;;6.53;;
23418;SDS011;11882;42.522;27.458;2022-10-30T00:52:17;11.33;;;6.30;;
23418;SDS011;11882;42.522;27.458;2022-10-30T00:54:46;10.07;;;6.93;;
23418;SDS011;11882;42.522;27.458;2022-10-30T00:57:13;10.60;;;6.90;;
23418;SDS011;11882;42.522;27.458;2022-10-30T00:59:41;8.73;;;6.83;;
23418;SDS011;11882;42.522;27.458;2022-10-30T01:02:08;9.60;;;5.97;;
23418;SDS011;11882;42.522;27.458;2022-10-30T01:04:35;11.47;;;7.10;;
23418;SDS011;11882;42.522;27.458;2022-10-30T01:07:05;11.70;;;7.37;;
23418;SDS011;11882;42.522;27.458;2022-10-30T01:09:35;11.20;;;6.97;;
23418;SDS011;11882;42.522;27.458;2022-10-30T01:12:03;10.57;;;7.03;;
23418;SDS011;11882;42.522;27.458;2022-10-30T01:14:30;12.63;;;6.37;;
23418;SDS011;11882;42.522;27.458;2022-10-30T01:17:08;9.67;;;6.37;;
23418;SDS011;11882;42.522;27.458;2022-10-30T01:19:47;11.00;;;6.23;;
23418;SDS011;11882;42.522;27.458;2022-10-30T01:22:36;8.97;;;6.30;;
23418;SDS011;11882;42.522;27.458;2022-10-30T01:25:23;8.47;;;6.50;;
23418;SDS011;11882;42.522;27.458;2022-10-30T01:28:06;8.53;;;6.40;;
23418;SDS011;11882;42.522;27.458;2022-10-30T01:30:47;8.60;;;6.40;;
23418;SDS011;11882;42.522;27.458;2022-10-30T01:33:30;8.40;;;6.33;;
23418;SDS011;11882;42.522;27.458;2022-10-30T01:36:07;8.27;;;6.03;;
23418;SDS011;11882;42.522;27.458;2022-10-30T01:38:43;12.47;;;7.07;;
23418;SDS011;11882;42.522;27.458;2022-10-30T01:41:15;11.60;;;6.70;;
23418;SDS011;11882;42.522;27.458;2022-10-30T01:43:42;9.67;;;6.47;;
23418;SDS011;11882;42.522;27.458;2022-10-30T01:46:17;10.90;;;6.97;;
23418;SDS011;11882;42.522;27.458;2022-10-30T01:49:06;10.97;;;7.40;;
23418;SDS011;11882;42.522;27.458;2022-10-30T01:51:50;9.07;;;6.80;;
23418;SDS011;11882;42.522;27.458;2022-10-30T01:54:26;10.87;;;6.67;;
23418;SDS011;11882;42.522;27.458;2022-10-30T01:57:02;9.80;;;7.00;;
23418;SDS011;11882;42.522;27.458;2022-10-30T01:59:38;10.20;;;6.90;;
23418;SDS011;11882;42.522;27.458;2022-10-30T02:02:09;9.73;;;6.93;;
23418;SDS011;11882;42.522;27.458;2022-10-30T02:04:38;12.50;;;6.70;;
23418;SDS011;11882;42.522;27.458;2022-10-30T02:07:05;13.10;;;7.50;;
23418;SDS011;11882;42.522;27.458;2022-10-30T02:09:32;11.17;;;7.00;;
23418;SDS011;11882;42.522;27.458;2022-10-30T02:12:00;11.73;;;7.37;;
23418;SDS011;11882;42.522;27.458;2022-10-30T02:14:29;10.47;;;6.40;;
23418;SDS011;11882;42.522;27.458;2022-10-30T02:16:59;11.07;;;7.10;;
23418;SDS011;11882;42.522;27.458;2022-10-30T02:19:29;11.97;;;7.10;;
23418;SDS011;11882;42.522;27.458;2022-10-30T02:21:57;10.83;;;7.20;;
23418;SDS011;11882;42.522;27.458;2022-10-30T02:24:24;10.63;;;7.27;;
23418;SDS011;11882;42.522;27.458;2022-10-30T02:26:51;11.03;;;7.20;;
23418;SDS011;11882;42.522;27.458;2022-10-30T02:29:18;10.03;;;7.60;;
23418;SDS011;11882;42.522;27.458;2022-10-30T02:31:46;10.77;;;7.03;;
23418;SDS011;11882;42.522;27.458;2022-10-30T02:34:15;11.77;;;7.67;;
23418;SDS011;11882;42.522;27.458;2022-10-30T02:36:42;8.90;;;6.47;;
23418;SDS011;11882;42.522;27.458;2022-10-30T02:39:10;11.30;;;7.23;;
23418;SDS011;11882;42.522;27.458;2022-10-30T02:41:38;9.90;;;7.23;;
23418;SDS011;11882;42.522;27.458;2022-10-30T02:44:05;9.77;;;7.13;;
23418;SDS011;11882;42.522;27.458;2022-10-30T02:46:32;12.20;;;7.23;;
23418;SDS011;11882;42.522;27.458;2022-10-30T02:49:00;10.00;;;7.37;;
23418;SDS011;11882;42.522;27.458;2022-10-30T02:51:27;9.20;;;7.17;;
23418;SDS011;11882;42.522;27.458;2022-10-30T02:53:56;9.53;;;6.40;;
23418;SDS011;11882;42.522;27.458;2022-10-30T02:56:24;10.13;;;6.63;;
23418;SDS011;11882;42.522;27.458;2022-10-30T02:58:51;10.27;;;7.20;;
23418;SDS011;11882;42.522;27.458;2022-10-30T03:01:20;13.93;;;7.43;;
23418;SDS011;11882;42.522;27.458;2022-10-30T03:03:47;10.60;;;7.07;;
23418;SDS011;11882;42.522;27.458;2022-10-30T03:06:15;9.07;;;6.93;;
23418;SDS011;11882;42.522;27.458;2022-10-30T03:08:42;10.43;;;6.60;;
23418;SDS011;11882;42.522;27.458;2022-10-30T03:11:10;11.30;;;7.30;;
23418;SDS011;11882;42.522;27.458;2022-10-30T03:13:40;10.03;;;6.70;;
23418;SDS011;11882;42.522;27.458;2022-10-30T03:16:09;10.90;;;6.83;;
23418;SDS011;11882;42.522;27.458;2022-10-30T03:18:39;9.90;;;7.13;;
23418;SDS011;11882;42.522;27.458;2022-10-30T03:21:07;9.87;;;6.43;;
23418;SDS011;11882;42.522;27.458;2022-10-30T03:23:35;10.67;;;6.83;;
23418;SDS011;11882;42.522;27.458;2022-10-30T03:26:02;9.80;;;6.73;;
23418;SDS011;11882;42.522;27.458;2022-10-30T03:28:30;10.30;;;7.20;;
23418;SDS011;11882;42.522;27.458;2022-10-30T03:30:59;10.13;;;7.23;;
23418;SDS011;11882;42.522;27.458;2022-10-30T03:33:27;13.43;;;7.27;;
23418;SDS011;11882;42.522;27.458;2022-10-30T03:35:54;12.20;;;6.83;;
23418;SDS011;11882;42.522;27.458;2022-10-30T03:38:22;10.47;;;6.83;;
23418;SDS011;11882;42.522;27.458;2022-10-30T03:40:49;9.70;;;6.50;;
23418;SDS011;11882;42.522;27.458;2022-10-30T03:43:16;11.33;;;6.90;;
23418;SDS011;11882;42.522;27.458;2022-10-30T03:45:45;11.17;;;7.43;;
23418;SDS011;11882;42.522;27.458;2022-10-30T03:48:14;10.90;;;7.37;;
23418;SDS011;11882;42.522;27.458;2022-10-30T03:50:43;12.17;;;8.00;;
23418;SDS011;11882;42.522;27.458;2022-10-30T03:53:10;12.07;;;8.23;;
23418;SDS011;11882;42.522;27.458;2022-10-30T03:55:38;11.60;;;8.97;;
23418;SDS011;11882;42.522;27.458;2022-10-30T03:58:05;13.47;;;8.87;;
23418;SDS011;11882;42.522;27.458;2022-10-30T04:00:33;11.60;;;8.33;;
23418;SDS011;11882;42.522;27.458;2022-10-30T04:03:01;11.00;;;8.43;;
23418;SDS011;11882;42.522;27.458;2022-10-30T04:05:33;10.90;;;7.83;;
23418;SDS011;11882;42.522;27.458;2022-10-30T04:08:01;14.03;;;8.37;;
23418;SDS011;11882;42.522;27.458;2022-10-30T04:10:29;12.13;;;7.27;;
23418;SDS011;11882;42.522;27.458;2022-10-30T04:12:58;11.80;;;8.37;;
23418;SDS011;11882;42.522;27.458;2022-10-30T04:15:27;11.63;;;8.13;;
23418;SDS011;11882;42.522;27.458;2022-10-30T04:17:53;11.73;;;7.90;;
23418;SDS011;11882;42.522;27.458;2022-10-30T04:20:22;12.03;;;7.40;;
23418;SDS011;11882;42.522;27.458;2022-10-30T04:22:55;10.57;;;7.40;;
23418;SDS011;11882;42.522;27.458;2022-10-30T04:25:22;11.73;;;7.53;;
23418;SDS011;11882;42.522;27.458;2022-10-30T04:27:49;14.80;;;8.60;;
23418;SDS011;11882;42.522;27.458;2022-10-30T04:30:17;11.83;;;8.50;;
23418;SDS011;11882;42.522;27.458;2022-10-30T04:32:46;13.37;;;8.00;;
23418;SDS011;11882;42.522;27.458;2022-10-30T04:35:13;12.53;;;8.43;;
23418;SDS011;11882;42.522;27.458;2022-10-30T04:37:40;13.93;;;9.53;;
23418;SDS011;11882;42.522;27.458;2022-10-30T04:40:10;13.07;;;9.10;;
23418;SDS011;11882;42.522;27.458;2022-10-30T04:42:37;11.40;;;8.57;;
23418;SDS011;11882;42.522;27.458;2022-10-30T04:45:05;11.53;;;8.70;;
23418;SDS011;11882;42.522;27.458;2022-10-30T04:47:32;12.97;;;8.40;;
23418;SDS011;11882;42.522;27.458;2022-10-30T04:49:59;16.00;;;8.53;;
23418;SDS011;11882;42.522;27.458;2022-10-30T04:52:26;14.37;;;8.83;;
23418;SDS011;11882;42.522;27.458;2022-10-30T04:54:53;11.77;;;8.27;;
23418;SDS011;11882;42.522;27.458;2022-10-30T04:57:22;12.27;;;8.10;;
23418;SDS011;11882;42.522;27.458;2022-10-30T04:59:49;11.97;;;7.97;;
23418;SDS011;11882;42.522;27.458;2022-10-30T05:02:16;10.20;;;7.83;;
23418;SDS011;11882;42.522;27.458;2022-10-30T05:04:44;14.00;;;8.57;;
23418;SDS011;11882;42.522;27.458;2022-10-30T05:07:11;13.07;;;8.80;;
23418;SDS011;11882;42.522;27.458;2022-10-30T05:09:39;11.63;;;8.37;;
23418;SDS011;11882;42.522;27.458;2022-10-30T05:12:06;15.07;;;9.40;;
23418;SDS011;11882;42.522;27.458;2022-10-30T05:14:34;12.43;;;8.87;;
23418;SDS011;11882;42.522;27.458;2022-10-30T05:17:02;14.93;;;10.83;;
23418;SDS011;11882;42.522;27.458;2022-10-30T05:19:28;14.13;;;10.60;;
23418;SDS011;11882;42.522;27.458;2022-10-30T05:21:55;16.73;;;11.10;;
23418;SDS011;11882;42.522;27.458;2022-10-30T05:24:22;14.90;;;9.47;;
23418;SDS011;11882;42.522;27.458;2022-10-30T05:26:49;15.67;;;10.17;;
23418;SDS011;11882;42.522;27.458;2022-10-30T05:29:16;14.70;;;11.00;;
23418;SDS011;11882;42.522;27.458;2022-10-30T05:31:44;15.67;;;10.00;;
23418;SDS011;11882;42.522;27.458;2022-10-30T05:34:11;12.00;;;9.00;;
23418;SDS011;11882;42.522;27.458;2022-10-30T05:36:38;10.53;;;8.40;;
23418;SDS011;11882;42.522;27.458;2022-10-30T05:39:05;11.93;;;8.20;;
23418;SDS011;11882;42.522;27.458;2022-10-30T05:41:32;13.07;;;8.30;;
23418;SDS011;11882;42.522;27.458;2022-10-30T05:43:59;12.37;;;8.27;;
23418;SDS011;11882;42.522;27.458;2022-10-30T05:46:26;14.37;;;8.47;;
23418;SDS011;11882;42.522;27.458;2022-10-30T05:48:55;9.97;;;7.27;;
23418;SDS011;11882;42.522;27.458;2022-10-30T05:51:21;12.23;;;7.00;;
23418;SDS011;11882;42.522;27.458;2022-10-30T05:53:48;10.03;;;7.57;;
23418;SDS011;11882;42.522;27.458;2022-10-30T05:56:15;10.47;;;7.77;;
23418;SDS011;11882;42.522;27.458;2022-10-30T05:58:42;10.90;;;7.73;;
23418;SDS011;11882;42.522;27.458;2022-10-30T06:01:09;9.73;;;6.80;;
23418;SDS011;11882;42.522;27.458;2022-10-30T06:03:37;9.40;;;6.40;;
23418;SDS011;11882;42.522;27.458;2022-10-30T06:06:05;10.03;;;7.17;;
23418;SDS011;11882;42.522;27.458;2022-10-30T06:08:32;8.90;;;6.37;;
23418;SDS011;11882;42.522;27.458;2022-10-30T06:10:59;8.43;;;6.33;;
23418;SDS011;11882;42.522;27.458;2022-10-30T06:13:26;9.73;;;6.40;;
23418;SDS011;11882;42.522;27.458;2022-10-30T06:15:53;8.07;;;6.50;;
23418;SDS011;11882;42.522;27.458;2022-10-30T06:18:21;7.70;;;5.90;;
23418;SDS011;11882;42.522;27.458;2022-10-30T06:20:48;9.97;;;5.93;;
23418;SDS011;11882;42.522;27.458;2022-10-30T06:23:16;8.73;;;6.33;;
23418;SDS011;11882;42.522;27.458;2022-10-30T06:25:43;8.40;;;5.90;;
23418;SDS011;11882;42.522;27.458;2022-10-30T06:28:10;10.60;;;6.30;;
23418;SDS011;11882;42.522;27.458;2022-10-30T06:30:38;10.17;;;6.50;;
23418;SDS011;11882;42.522;27.458;2022-10-30T06:33:06;11.97;;;6.37;;
23418;SDS011;11882;42.522;27.458;2022-10-30T06:35:35;11.80;;;6.43;;
23418;SDS011;11882;42.522;27.458;2022-10-30T06:38:01;9.73;;;7.03;;
23418;SDS011;11882;42.522;27.458;2022-10-30T06:40:30;9.60;;;6.80;;
23418;SDS011;11882;42.522;27.458;2022-10-30T06:42:57;11.23;;;7.07;;
23418;SDS011;11882;42.522;27.458;2022-10-30T06:45:24;11.47;;;8.03;;
23418;SDS011;11882;42.522;27.458;2022-10-30T06:47:52;11.80;;;7.83;;
23418;SDS011;11882;42.522;27.458;2022-10-30T06:50:19;11.63;;;8.37;;
23418;SDS011;11882;42.522;27.458;2022-10-30T06:52:48;13.07;;;7.57;;
23418;SDS011;11882;42.522;27.458;2022-10-30T06:55:15;9.43;;;6.53;;
23418;SDS011;11882;42.522;27.458;2022-10-30T06:57:44;9.30;;;6.93;;
23418;SDS011;11882;42.522;27.458;2022-10-30T07:00:11;8.83;;;6.37;;
23418;SDS011;11882;42.522;27.458;2022-10-30T07:02:38;9.13;;;6.93;;
23418;SDS011;11882;42.522;27.458;2022-10-30T07:05:06;10.60;;;6.47;;
23418;SDS011;11882;42.522;27.458;2022-10-30T07:07:33;10.47;;;6.67;;
23418;SDS011;11882;42.522;27.458;2022-10-30T07:09:59;9.17;;;6.33;;
23418;SDS011;11882;42.522;27.458;2022-10-30T07:12:26;10.90;;;6.43;;
23418;SDS011;11882;42.522;27.458;2022-10-30T07:14:55;10.83;;;6.30;;
23418;SDS011;11882;42.522;27.458;2022-10-30T07:17:21;9.13;;;5.60;;
23418;SDS011;11882;42.522;27.458;2022-10-30T07:19:48;10.67;;;6.63;;
23418;SDS011;11882;42.522;27.458;2022-10-30T07:22:16;8.63;;;5.90;;
23418;SDS011;11882;42.522;27.458;2022-10-30T07:24:43;9.73;;;6.40;;
23418;SDS011;11882;42.522;27.458;2022-10-30T07:27:10;9.33;;;5.83;;
23418;SDS011;11882;42.522;27.458;2022-10-30T07:29:37;7.97;;;5.67;;
23418;SDS011;11882;42.522;27.458;2022-10-30T07:32:05;11.60;;;6.87;;
23418;SDS011;11882;42.522;27.458;2022-10-30T07:34:33;12.93;;;6.60;;
23418;SDS011;11882;42.522;27.458;2022-10-30T07:37:00;10.20;;;6.80;;
23418;SDS011;11882;42.522;27.458;2022-10-30T07:39:27;10.47;;;6.27;;
23418;SDS011;11882;42.522;27.458;2022-10-30T07:41:54;11.37;;;6.30;;
23418;SDS011;11882;42.522;27.458;2022-10-30T07:44:20;10.10;;;5.97;;
23418;SDS011;11882;42.522;27.458;2022-10-30T07:46:47;18.63;;;6.83;;
23418;SDS011;11882;42.522;27.458;2022-10-30T07:49:16;9.17;;;6.27;;
23418;SDS011;11882;42.522;27.458;2022-10-30T07:51:42;7.87;;;6.10;;
23418;SDS011;11882;42.522;27.458;2022-10-30T07:54:09;9.50;;;6.00;;
23418;SDS011;11882;42.522;27.458;2022-10-30T07:56:36;9.70;;;6.60;;
23418;SDS011;11882;42.522;27.458;2022-10-30T07:59:03;12.63;;;6.63;;
23418;SDS011;11882;42.522;27.458;2022-10-30T08:01:30;8.33;;;5.57;;
23418;SDS011;11882;42.522;27.458;2022-10-30T08:03:57;8.63;;;5.77;;
23418;SDS011;11882;42.522;27.458;2022-10-30T08:06:26;8.07;;;5.20;;
23418;SDS011;11882;42.522;27.458;2022-10-30T08:08:53;6.67;;;5.03;;
23418;SDS011;11882;42.522;27.458;2022-10-30T08:11:20;6.40;;;5.20;;
23418;SDS011;11882;42.522;27.458;2022-10-30T08:13:46;7.37;;;4.90;;
23418;SDS011;11882;42.522;27.458;2022-10-30T08:16:14;8.13;;;5.30;;
23418;SDS011;11882;42.522;27.458;2022-10-30T08:18:42;9.07;;;5.17;;
23418;SDS011;11882;42.522;27.458;2022-10-30T08:21:09;8.07;;;5.23;;
23418;SDS011;11882;42.522;27.458;2022-10-30T08:23:37;6.10;;;4.70;;
23418;SDS011;11882;42.522;27.458;2022-10-30T08:26:04;9.27;;;5.97;;
23418;SDS011;11882;42.522;27.458;2022-10-30T08:28:31;9.90;;;6.40;;
23418;SDS011;11882;42.522;27.458;2022-10-30T08:30:59;9.70;;;7.23;;
23418;SDS011;11882;42.522;27.458;2022-10-30T08:33:27;8.93;;;7.17;;
23418;SDS011;11882;42.522;27.458;2022-10-30T08:35:54;8.80;;;5.63;;
23418;SDS011;11882;42.522;27.458;2022-10-30T08:38:22;6.03;;;4.60;;
23418;SDS011;11882;42.522;27.458;2022-10-30T08:40:51;6.67;;;4.73;;
23418;SDS011;11882;42.522;27.458;2022-10-30T08:43:18;7.40;;;5.17;;
23418;SDS011;11882;42.522;27.458;2022-10-30T08:45:46;7.93;;;5.50;;
23418;SDS011;11882;42.522;27.458;2022-10-30T08:48:13;7.03;;;4.53;;
23418;SDS011;11882;42.522;27.458;2022-10-30T08:50:41;7.47;;;5.30;;
23418;SDS011;11882;42.522;27.458;2022-10-30T08:53:09;7.10;;;5.20;;
23418;SDS011;11882;42.522;27.458;2022-10-30T08:55:37;6.83;;;4.97;;
23418;SDS011;11882;42.522;27.458;2022-10-30T08:58:05;6.73;;;5.07;;
23418;SDS011;11882;42.522;27.458;2022-10-30T09:00:33;7.20;;;4.93;;
23418;SDS011;11882;42.522;27.458;2022-10-30T09:03:00;7.83;;;4.40;;
23418;SDS011;11882;42.522;27.458;2022-10-30T09:05:27;7.27;;;5.10;;
23418;SDS011;11882;42.522;27.458;2022-10-30T09:07:54;8.33;;;4.47;;
23418;SDS011;11882;42.522;27.458;2022-10-30T09:10:24;8.77;;;4.63;;
23418;SDS011;11882;42.522;27.458;2022-10-30T09:12:54;7.73;;;4.63;;
23418;SDS011;11882;42.522;27.458;2022-10-30T09:15:24;8.17;;;4.50;;
23418;SDS011;11882;42.522;27.458;2022-10-30T09:17:56;8.07;;;4.47;;
23418;SDS011;11882;42.522;27.458;2022-10-30T09:20:23;8.97;;;5.07;;
23418;SDS011;11882;42.522;27.458;2022-10-30T09:22:51;8.00;;;5.13;;
23418;SDS011;11882;42.522;27.458;2022-10-30T09:25:18;8.87;;;4.63;;
23418;SDS011;11882;42.522;27.458;2022-10-30T09:27:45;8.53;;;4.87;;
23418;SDS011;11882;42.522;27.458;2022-10-30T09:30:13;10.17;;;5.13;;
23418;SDS011;11882;42.522;27.458;2022-10-30T09:32:41;9.30;;;4.73;;
23418;SDS011;11882;42.522;27.458;2022-10-30T09:35:08;10.60;;;5.13;;
23418;SDS011;11882;42.522;27.458;2022-10-30T09:37:35;7.63;;;5.10;;
23418;SDS011;11882;42.522;27.458;2022-10-30T09:40:03;6.77;;;4.83;;
23418;SDS011;11882;42.522;27.458;2022-10-30T09:42:38;11.50;;;4.87;;
23418;SDS011;11882;42.522;27.458;2022-10-30T09:45:17;8.80;;;4.87;;
23418;SDS011;11882;42.522;27.458;2022-10-30T09:47:55;7.60;;;5.03;;
23418;SDS011;11882;42.522;27.458;2022-10-30T09:50:35;7.47;;;4.37;;
23418;SDS011;11882;42.522;27.458;2022-10-30T09:53:09;6.33;;;4.33;;
23418;SDS011;11882;42.522;27.458;2022-10-30T09:55:44;11.80;;;5.27;;
23418;SDS011;11882;42.522;27.458;2022-10-30T09:58:30;10.67;;;5.03;;
23418;SDS011;11882;42.522;27.458;2022-10-30T10:01:14;7.47;;;4.80;;
23418;SDS011;11882;42.522;27.458;2022-10-30T10:03:50;9.87;;;4.77;;
23418;SDS011;11882;42.522;27.458;2022-10-30T10:06:26;9.40;;;5.07;;
23418;SDS011;11882;42.522;27.458;2022-10-30T10:08:58;6.80;;;4.47;;
23418;SDS011;11882;42.522;27.458;2022-10-30T10:11:30;6.73;;;4.50;;
23418;SDS011;11882;42.522;27.458;2022-10-30T10:14:02;7.40;;;4.13;;
23418;SDS011;11882;42.522;27.458;2022-10-30T10:16:33;7.70;;;5.00;;
23418;SDS011;11882;42.522;27.458;2022-10-30T10:19:08;9.83;;;4.23;;
23418;SDS011;11882;42.522;27.458;2022-10-30T10:21:42;10.07;;;3.90;;
23418;SDS011;11882;42.522;27.458;2022-10-30T10:24:13;7.93;;;4.67;;
23418;SDS011;11882;42.522;27.458;2022-10-30T10:26:46;7.70;;;4.90;;
23418;SDS011;11882;42.522;27.458;2022-10-30T10:29:25;8.03;;;4.80;;
23418;SDS011;11882;42.522;27.458;2022-10-30T10:32:02;8.20;;;4.00;;
23418;SDS011;11882;42.522;27.458;2022-10-30T10:34:56;6.57;;;3.97;;
23418;SDS011;11882;42.522;27.458;2022-10-30T10:37:42;9.47;;;3.70;;
23418;SDS011;11882;42.522;27.458;2022-10-30T10:40:19;6.60;;;3.93;;
23418;SDS011;11882;42.522;27.458;2022-10-30T10:43:00;6.50;;;3.70;;
23418;SDS011;11882;42.522;27.458;2022-10-30T10:45:38;6.93;;;3.80;;
23418;SDS011;11882;42.522;27.458;2022-10-30T10:48:21;7.67;;;4.23;;
23418;SDS011;11882;42.522;27.458;2022-10-30T10:51:03;5.87;;;4.07;;
23418;SDS011;11882;42.522;27.458;2022-10-30T10:53:36;5.80;;;4.07;;
23418;SDS011;11882;42.522;27.458;2022-10-30T10:56:09;8.77;;;4.63;;
23418;SDS011;11882;42.522;27.458;2022-10-30T10:58:40;7.73;;;4.17;;
23418;SDS011;11882;42.522;27.458;2022-10-30T11:01:16;8.17;;;3.83;;
23418;SDS011;11882;42.522;27.458;2022-10-30T11:03:49;6.23;;;3.67;;
23418;SDS011;11882;42.522;27.458;2022-10-30T11:06:24;6.17;;;3.73;;
23418;SDS011;11882;42.522;27.458;2022-10-30T11:08:56;6.93;;;3.90;;
23418;SDS011;11882;42.522;27.458;2022-10-30T11:11:28;5.57;;;4.00;;
23418;SDS011;11882;42.522;27.458;2022-10-30T11:13:54;6.73;;;3.67;;
23418;SDS011;11882;42.522;27.458;2022-10-30T11:16:24;6.73;;;3.70;;
23418;SDS011;11882;42.522;27.458;2022-10-30T11:18:56;6.73;;;4.00;;
23418;SDS011;11882;42.522;27.458;2022-10-30T11:21:28;7.53;;;3.93;;
23418;SDS011;11882;42.522;27.458;2022-10-30T11:23:58;9.47;;;3.77;;
23418;SDS011;11882;42.522;27.458;2022-10-30T11:26:26;4.87;;;3.60;;
23418;SDS011;11882;42.522;27.458;2022-10-30T11:28:56;7.97;;;3.40;;
23418;SDS011;11882;42.522;27.458;2022-10-30T11:31:27;6.13;;;3.37;;
23418;SDS011;11882;42.522;27.458;2022-10-30T11:34:00;6.40;;;3.87;;
23418;SDS011;11882;42.522;27.458;2022-10-30T11:36:41;8.23;;;3.70;;
23418;SDS011;11882;42.522;27.458;2022-10-30T11:39:08;3.63;;;3.23;;
23418;SDS011;11882;42.522;27.458;2022-10-30T11:41:35;5.70;;;3.20;;
23418;SDS011;11882;42.522;27.458;2022-10-30T11:44:03;8.13;;;3.60;;
23418;SDS011;11882;42.522;27.458;2022-10-30T11:46:31;6.13;;;3.80;;
23418;SDS011;11882;42.522;27.458;2022-10-30T11:49:01;6.13;;;3.90;;
23418;SDS011;11882;42.522;27.458;2022-10-30T11:51:29;6.60;;;3.57;;
23418;SDS011;11882;42.522;27.458;2022-10-30T11:54:00;5.13;;;3.53;;
23418;SDS011;11882;42.522;27.458;2022-10-30T11:56:28;5.90;;;3.50;;
23418;SDS011;11882;42.522;27.458;2022-10-30T11:58:57;9.07;;;4.20;;
23418;SDS011;11882;42.522;27.458;2022-10-30T12:01:28;6.87;;;3.73;;
23418;SDS011;11882;42.522;27.458;2022-10-30T12:03:56;6.53;;;3.57;;
23418;SDS011;11882;42.522;27.458;2022-10-30T12:06:39;9.77;;;3.80;;
23418;SDS011;11882;42.522;27.458;2022-10-30T12:09:11;5.43;;;3.73;;
23418;SDS011;11882;42.522;27.458;2022-10-30T12:11:41;7.37;;;4.00;;
23418;SDS011;11882;42.522;27.458;2022-10-30T12:14:14;7.27;;;4.10;;
23418;SDS011;11882;42.522;27.458;2022-10-30T12:16:45;5.83;;;3.80;;
23418;SDS011;11882;42.522;27.458;2022-10-30T12:19:14;6.67;;;4.00;;
23418;SDS011;11882;42.522;27.458;2022-10-30T12:21:43;7.10;;;3.50;;
23418;SDS011;11882;42.522;27.458;2022-10-30T12:24:15;8.63;;;4.30;;
23418;SDS011;11882;42.522;27.458;2022-10-30T12:26:46;5.77;;;3.63;;
23418;SDS011;11882;42.522;27.458;2022-10-30T12:29:17;5.37;;;3.43;;
23418;SDS011;11882;42.522;27.458;2022-10-30T12:31:48;5.70;;;3.87;;
23418;SDS011;11882;42.522;27.458;2022-10-30T12:34:26;5.90;;;3.80;;
23418;SDS011;11882;42.522;27.458;2022-10-30T12:37:01;4.47;;;3.50;;
23418;SDS011;11882;42.522;27.458;2022-10-30T12:39:40;6.90;;;3.73;;
23418;SDS011;11882;42.522;27.458;2022-10-30T12:42:14;9.20;;;3.97;;
23418;SDS011;11882;42.522;27.458;2022-10-30T12:44:47;6.67;;;3.57;;
23418;SDS011;11882;42.522;27.458;2022-10-30T12:47:20;5.20;;;3.40;;
23418;SDS011;11882;42.522;27.458;2022-10-30T12:49:56;6.17;;;3.60;;
23418;SDS011;11882;42.522;27.458;2022-10-30T12:52:27;7.53;;;3.80;;
23418;SDS011;11882;42.522;27.458;2022-10-30T12:55:02;7.97;;;3.73;;
23418;SDS011;11882;42.522;27.458;2022-10-30T12:57:39;5.90;;;3.60;;
23418;SDS011;11882;42.522;27.458;2022-10-30T13:00:10;6.57;;;3.70;;
23418;SDS011;11882;42.522;27.458;2022-10-30T13:02:43;6.00;;;3.53;;
23418;SDS011;11882;42.522;27.458;2022-10-30T13:05:23;6.53;;;4.43;;
23418;SDS011;11882;42.522;27.458;2022-10-30T13:07:56;6.83;;;4.00;;
23418;SDS011;11882;42.522;27.458;2022-10-30T13:10:34;6.53;;;4.13;;
23418;SDS011;11882;42.522;27.458;2022-10-30T13:13:08;7.60;;;3.80;;
23418;SDS011;11882;42.522;27.458;2022-10-30T13:15:39;5.90;;;3.90;;
23418;SDS011;11882;42.522;27.458;2022-10-30T13:18:14;7.83;;;3.40;;
23418;SDS011;11882;42.522;27.458;2022-10-30T13:20:44;5.17;;;3.47;;
23418;SDS011;11882;42.522;27.458;2022-10-30T13:23:28;6.10;;;3.80;;
23418;SDS011;11882;42.522;27.458;2022-10-30T13:26:05;5.57;;;3.70;;
23418;SDS011;11882;42.522;27.458;2022-10-30T13:28:40;6.87;;;4.10;;
23418;SDS011;11882;42.522;27.458;2022-10-30T13:31:15;6.40;;;3.43;;
23418;SDS011;11882;42.522;27.458;2022-10-30T13:33:51;5.10;;;4.13;;
23418;SDS011;11882;42.522;27.458;2022-10-30T13:36:28;6.70;;;3.80;;
23418;SDS011;11882;42.522;27.458;2022-10-30T13:38:59;6.23;;;3.97;;
23418;SDS011;11882;42.522;27.458;2022-10-30T13:41:38;6.93;;;4.00;;
23418;SDS011;11882;42.522;27.458;2022-10-30T13:44:18;10.37;;;4.50;;
23418;SDS011;11882;42.522;27.458;2022-10-30T13:46:57;5.27;;;3.93;;
23418;SDS011;11882;42.522;27.458;2022-10-30T13:49:41;5.93;;;3.93;;
23418;SDS011;11882;42.522;27.458;2022-10-30T13:52:17;6.10;;;4.03;;
23418;SDS011;11882;42.522;27.458;2022-10-30T13:54:47;5.93;;;3.70;;
23418;SDS011;11882;42.522;27.458;2022-10-30T13:57:25;6.00;;;4.20;;
23418;SDS011;11882;42.522;27.458;2022-10-30T13:59:59;6.53;;;4.00;;
23418;SDS011;11882;42.522;27.458;2022-10-30T14:02:33;7.50;;;4.33;;
23418;SDS011;11882;42.522;27.458;2022-10-30T14:05:18;6.70;;;4.17;;
23418;SDS011;11882;42.522;27.458;2022-10-30T14:07:56;8.47;;;4.10;;
23418;SDS011;11882;42.522;27.458;2022-10-30T14:10:36;6.73;;;3.97;;
23418;SDS011;11882;42.522;27.458;2022-10-30T14:15:54;7.23;;;4.17;;
23418;SDS011;11882;42.522;27.458;2022-10-30T14:18:26;6.00;;;4.30;;
23418;SDS011;11882;42.522;27.458;2022-10-30T14:20:58;11.30;;;5.80;;
23418;SDS011;11882;42.522;27.458;2022-10-30T14:23:45;8.17;;;5.17;;
23418;SDS011;11882;42.522;27.458;2022-10-30T14:26:18;9.57;;;5.00;;
23418;SDS011;11882;42.522;27.458;2022-10-30T14:28:48;5.73;;;3.93;;
23418;SDS011;11882;42.522;27.458;2022-10-30T14:31:18;7.43;;;4.47;;
23418;SDS011;11882;42.522;27.458;2022-10-30T14:33:57;8.07;;;4.10;;
23418;SDS011;11882;42.522;27.458;2022-10-30T14:36:25;6.87;;;4.70;;
23418;SDS011;11882;42.522;27.458;2022-10-30T14:39:27;8.90;;;4.77;;
23418;SDS011;11882;42.522;27.458;2022-10-30T14:42:00;6.23;;;4.40;;
23418;SDS011;11882;42.522;27.458;2022-10-30T14:47:45;6.67;;;4.37;;
23418;SDS011;11882;42.522;27.458;2022-10-30T14:53:25;22.90;;;13.43;;
23418;SDS011;11882;42.522;27.458;2022-10-30T14:56:02;8.17;;;6.07;;
23418;SDS011;11882;42.522;27.458;2022-10-30T14:58:34;8.10;;;5.20;;
23418;SDS011;11882;42.522;27.458;2022-10-30T15:04:05;7.30;;;4.53;;